Time;durP1;ratioP1;P1;durP2;ratioP2;P2;SDS_P1;SDS_P2;PMS_P1;PMS_P2;Temp;Humidity;BMP_temperature;BMP_pressure;BME280_temperature;BME280_humidity;BME280_pressure;Samples;Min_cycle;Max_cycle;Signal;HPM_P1;HPM_P2
2021/01/03 00:01:11;;;;;;;65.05;31.20;;;5.20;64.70;;;;;;5032223;28;20454;-72
2021/01/03 00:03:38;;;;;;;64.20;31.35;;;5.20;63.50;;;;;;5032610;28;20823;-73
2021/01/03 00:06:04;;;;;;;66.97;31.20;;;5.20;64.80;;;;;;5032493;28;20387;-74
2021/01/03 00:08:33;;;;;;;72.65;34.00;;;5.10;64.50;;;;;;5032070;28;20379;-72
2021/01/03 00:10:59;;;;;;;69.28;32.88;;;5.10;65.30;;;;;;5032094;28;20394;-73
2021/01/03 00:13:24;;;;;;;63.17;32.15;;;5.00;66.40;;;;;;5032371;28;20868;-72
2021/01/03 00:15:50;;;;;;;72.53;33.50;;;5.10;66.50;;;;;;5032108;28;20395;-73
2021/01/03 00:18:15;;;;;;;72.67;33.13;;;5.00;66.40;;;;;;5013933;28;20914;-71
2021/01/03 00:20:41;;;;;;;68.87;33.90;;;5.00;66.70;;;;;;5031320;28;20474;-73
2021/01/03 00:23:06;;;;;;;69.40;33.47;;;5.00;67.40;;;;;;5031229;28;20414;-74
2021/01/03 00:25:33;;;;;;;73.80;35.37;;;5.00;66.60;;;;;;5031508;28;20387;-73
2021/01/03 00:27:59;;;;;;;66.20;33.30;;;5.00;67.00;;;;;;5031362;28;20480;-73
2021/01/03 00:30:27;;;;;;;75.75;34.75;;;5.00;67.10;;;;;;5034323;28;20430;-71
2021/01/03 00:32:53;;;;;;;74.57;35.03;;;5.00;66.80;;;;;;5036365;28;20471;-73
2021/01/03 00:35:26;;;;;;;69.68;34.88;;;5.00;67.10;;;;;;5017538;28;20888;-73
2021/01/03 00:37:52;;;;;;;68.65;34.90;;;5.00;68.10;;;;;;5018280;28;20383;-73
2021/01/03 00:40:21;;;;;;;76.28;36.17;;;5.00;68.20;;;;;;5035640;28;20418;-73
2021/01/03 00:42:47;;;;;;;76.75;35.55;;;5.00;68.40;;;;;;5035982;28;20386;-72
2021/01/03 00:45:13;;;;;;;74.83;34.77;;;5.00;68.10;;;;;;5036482;28;20470;-72
2021/01/03 00:47:39;;;;;;;74.15;36.08;;;4.90;69.30;;;;;;5035921;28;20375;-73
2021/01/03 00:50:09;;;;;;;74.15;35.15;;;4.90;71.80;;;;;;5035699;28;20402;-72
2021/01/03 00:52:35;;;;;;;71.25;34.10;;;5.10;69.00;;;;;;5035278;28;20422;-72
2021/01/03 00:55:01;;;;;;;70.68;34.15;;;5.20;65.30;;;;;;5034851;28;20394;-72
2021/01/03 00:57:26;;;;;;;71.70;35.80;;;5.10;66.60;;;;;;5035242;28;20745;-73
2021/01/03 00:59:52;;;;;;;75.17;35.20;;;5.10;67.10;;;;;;5035068;28;20387;-72
2021/01/03 01:02:17;;;;;;;72.43;34.78;;;5.10;66.40;;;;;;5034307;28;20390;-72
2021/01/03 01:04:43;;;;;;;74.15;35.22;;;5.10;66.10;;;;;;5034965;28;20486;-74
2021/01/03 01:07:09;;;;;;;71.70;34.38;;;5.10;65.90;;;;;;5016678;28;20379;-73
2021/01/03 01:09:34;;;;;;;75.55;34.78;;;5.10;66.00;;;;;;5016595;28;20391;-73
2021/01/03 01:12:00;;;;;;;80.80;36.83;;;5.10;65.60;;;;;;5012998;28;20395;-73
2021/01/03 01:14:26;;;;;;;84.10;36.90;;;5.10;66.70;;;;;;5030911;28;20387;-74
2021/01/03 01:16:51;;;;;;;78.18;36.45;;;5.00;66.50;;;;;;5030671;28;20379;-72
2021/01/03 01:19:17;;;;;;;82.85;39.33;;;5.00;67.00;;;;;;5030170;28;20395;-73
2021/01/03 01:21:42;;;;;;;79.60;37.10;;;5.00;68.50;;;;;;5030508;28;20391;-73
2021/01/03 01:24:09;;;;;;;82.80;36.50;;;5.00;69.20;;;;;;5030385;28;20509;-73
2021/01/03 01:26:35;;;;;;;78.90;37.20;;;5.00;67.30;;;;;;5030310;28;20395;-73
2021/01/03 01:29:00;;;;;;;78.57;37.33;;;5.00;68.50;;;;;;5030215;28;20394;-73
2021/01/03 01:31:26;;;;;;;79.03;37.00;;;5.00;70.30;;;;;;5030559;28;20466;-72
2021/01/03 01:33:52;;;;;;;80.13;37.35;;;5.10;67.60;;;;;;5030828;28;20478;-73
2021/01/03 01:36:17;;;;;;;78.53;36.78;;;5.10;67.60;;;;;;5031135;28;20967;-72
2021/01/03 01:38:43;;;;;;;81.80;37.70;;;5.10;68.30;;;;;;5030557;28;20725;-73
2021/01/03 01:41:08;;;;;;;82.20;37.73;;;5.00;68.10;;;;;;5030838;28;20437;-72
2021/01/03 01:43:34;;;;;;;74.93;35.67;;;5.00;69.10;;;;;;5031229;28;20437;-73
2021/01/03 01:46:00;;;;;;;73.97;36.27;;;5.20;65.90;;;;;;5031158;28;20453;-73
2021/01/03 01:48:39;;;;;;;78.20;37.30;;;5.30;64.70;;;;;;5030911;28;20410;-73
2021/01/03 01:51:19;;;;;;;77.80;36.67;;;5.30;65.10;;;;;;5034239;28;20405;-72
2021/01/03 01:53:53;;;;;;;77.93;35.85;;;5.10;67.20;;;;;;5034328;28;20863;-72
2021/01/03 01:56:55;;;;;;;78.95;36.80;;;5.30;65.50;;;;;;5033913;28;20395;-72
2021/01/03 01:59:26;;;;;;;75.32;36.13;;;5.20;65.50;;;;;;4983342;28;20433;-73
2021/01/03 02:02:26;;;;;;;78.88;38.15;;;5.10;67.00;;;;;;5034401;28;20379;-72
2021/01/03 02:05:32;;;;;;;85.03;39.43;;;5.10;68.30;;;;;;5035061;28;20445;-72
2021/01/03 02:08:09;;;;;;;77.88;36.70;;;5.10;68.50;;;;;;5032650;28;20383;-73
2021/01/03 02:10:41;;;;;;;74.30;37.83;;;5.10;67.50;;;;;;5030601;28;20390;-73
2021/01/03 02:13:10;;;;;;;73.75;36.28;;;5.10;68.30;;;;;;5030817;28;20418;-73
2021/01/03 02:15:37;;;;;;;82.15;39.45;;;5.20;67.70;;;;;;5030981;28;20505;-73
2021/01/03 02:18:05;;;;;;;79.07;38.42;;;5.10;66.40;;;;;;5029967;28;20418;-72
2021/01/03 02:20:42;;;;;;;75.82;36.55;;;5.20;65.30;;;;;;5029605;28;20401;-73
2021/01/03 02:23:10;;;;;;;79.35;36.78;;;5.20;66.90;;;;;;5033503;28;20379;-73
2021/01/03 02:25:36;;;;;;;67.72;34.75;;;5.40;63.20;;;;;;5033640;28;20387;-72
2021/01/03 02:28:18;;;;;;;79.18;36.83;;;5.40;61.80;;;;;;5033231;28;20387;-73
2021/01/03 02:30:48;;;;;;;79.50;38.78;;;5.40;62.20;;;;;;5033253;28;20777;-73
2021/01/03 02:33:19;;;;;;;79.38;39.40;;;5.20;63.90;;;;;;5033832;28;20456;-72
2021/01/03 02:35:48;;;;;;;78.63;37.53;;;5.20;65.70;;;;;;5033118;28;20383;-72
2021/01/03 02:38:19;;;;;;;75.07;36.00;;;5.20;66.00;;;;;;5033214;28;20394;-73
2021/01/03 02:40:44;;;;;;;77.22;36.22;;;5.40;62.40;;;;;;5033224;28;20756;-73
2021/01/03 02:43:10;;;;;;;77.30;37.10;;;5.30;62.20;;;;;;5033090;28;20411;-72
2021/01/03 02:45:35;;;;;;;82.30;39.37;;;5.20;63.70;;;;;;5033116;28;20387;-73
2021/01/03 02:48:09;;;;;;;80.17;38.43;;;5.00;66.40;;;;;;5033253;28;20446;-72
2021/01/03 02:50:35;;;;;;;78.88;37.53;;;5.00;68.90;;;;;;5015014;28;20533;-72
2021/01/03 02:53:00;;;;;;;84.47;38.20;;;5.20;64.20;;;;;;5033057;28;20490;-72
2021/01/03 02:55:26;;;;;;;78.70;38.70;;;5.00;66.70;;;;;;5032952;28;20795;-72
2021/01/03 02:57:51;;;;;;;82.63;38.50;;;5.10;66.10;;;;;;5033109;28;20379;-72
2021/01/03 03:00:30;;;;;;;78.70;38.00;;;5.10;66.40;;;;;;5032821;28;20394;-74
2021/01/03 03:02:56;;;;;;;75.68;38.50;;;5.20;63.80;;;;;;5033140;28;20379;-72
2021/01/03 03:05:23;;;;;;;80.80;37.22;;;5.30;62.60;;;;;;5032896;28;20375;-74
2021/01/03 03:07:49;;;;;;;78.00;38.23;;;5.20;63.00;;;;;;5033149;28;20394;-73
2021/01/03 03:10:16;;;;;;;83.20;38.25;;;5.20;62.60;;;;;;5032725;28;20379;-73
2021/01/03 03:12:41;;;;;;;84.43;40.25;;;5.10;64.30;;;;;;5032722;28;20809;-73
2021/01/03 03:15:09;;;;;;;83.07;39.17;;;4.90;67.10;;;;;;5032687;28;20476;-74
2021/01/03 03:17:35;;;;;;;76.45;37.47;;;5.10;64.70;;;;;;5032803;28;20457;-73
2021/01/03 03:20:01;;;;;;;76.70;36.85;;;5.20;62.80;;;;;;5032441;28;20803;-72
2021/01/03 03:22:26;;;;;;;82.77;38.77;;;5.20;62.50;;;;;;5032773;28;20741;-73
2021/01/03 03:24:52;;;;;;;84.55;39.88;;;5.10;63.40;;;;;;5032406;28;20457;-73
2021/01/03 03:27:18;;;;;;;74.72;37.22;;;5.00;65.60;;;;;;5032693;28;20379;-73
2021/01/03 03:29:43;;;;;;;75.35;37.38;;;5.10;64.00;;;;;;5032326;28;20389;-72
2021/01/03 03:32:09;;;;;;;82.63;39.60;;;5.10;63.30;;;;;;5032026;28;20430;-73
2021/01/03 03:34:34;;;;;;;78.10;39.33;;;5.10;62.30;;;;;;5031534;28;20391;-72
2021/01/03 03:37:00;;;;;;;79.57;38.47;;;5.00;64.70;;;;;;5032268;28;20441;-73
2021/01/03 03:39:26;;;;;;;76.63;38.63;;;5.10;64.10;;;;;;5031912;28;20391;-73
2021/01/03 03:41:56;;;;;;;83.32;39.90;;;5.10;63.80;;;;;;5032140;28;20763;-73
2021/01/03 03:44:23;;;;;;;78.68;38.45;;;5.10;63.60;;;;;;5032128;28;20418;-73
2021/01/03 03:46:57;;;;;;;75.95;36.65;;;5.10;62.20;;;;;;5014547;28;20864;-73
2021/01/03 03:49:24;;;;;;;74.30;36.60;;;5.10;61.00;;;;;;5031984;28;20387;-72
2021/01/03 03:51:58;;;;;;;72.78;36.75;;;5.10;61.30;;;;;;5014565;28;20931;-74
2021/01/03 03:54:24;;;;;;;78.50;38.15;;;5.00;61.20;;;;;;5032170;28;20414;-72
2021/01/03 03:56:58;;;;;;;73.63;37.55;;;4.90;65.20;;;;;;5032064;28;20387;-73
2021/01/03 03:59:24;;;;;;;78.45;38.78;;;4.90;62.90;;;;;;5031919;28;20705;-74
2021/01/03 04:01:51;;;;;;;72.18;36.05;;;4.90;64.00;;;;;;5031940;28;20374;-72
2021/01/03 04:04:17;;;;;;;71.47;35.85;;;5.00;62.10;;;;;;5032028;28;20764;-73
2021/01/03 04:06:43;;;;;;;69.72;35.65;;;5.00;62.50;;;;;;5032240;28;20399;-73
2021/01/03 04:09:11;;;;;;;74.63;36.08;;;5.00;61.80;;;;;;5031518;28;20406;-73
2021/01/03 04:11:41;;;;;;;76.40;37.88;;;5.00;61.20;;;;;;5032219;28;20391;-72
2021/01/03 04:14:08;;;;;;;70.88;37.15;;;5.00;62.30;;;;;;5031856;28;20387;-73
2021/01/03 04:16:33;;;;;;;77.88;36.17;;;5.00;62.30;;;;;;5031838;28;20401;-71
2021/01/03 04:18:59;;;;;;;69.90;37.30;;;5.00;61.90;;;;;;5031330;28;20485;-73
2021/01/03 04:21:25;;;;;;;72.00;36.80;;;4.90;61.50;;;;;;5031410;28;20391;-73
2021/01/03 04:23:50;;;;;;;73.83;37.57;;;4.70;65.10;;;;;;5031440;28;20430;-73
2021/01/03 04:26:22;;;;;;;72.47;36.55;;;4.60;66.30;;;;;;5031234;28;20469;-73
2021/01/03 04:28:47;;;;;;;66.75;34.83;;;4.60;66.70;;;;;;5031112;28;20458;-73
2021/01/03 04:31:20;;;;;;;74.78;36.45;;;4.90;61.90;;;;;;5031188;28;20474;-73
2021/01/03 04:33:46;;;;;;;71.32;35.83;;;5.00;59.20;;;;;;5031237;28;20538;-73
2021/01/03 04:36:16;;;;;;;73.70;35.10;;;4.90;61.00;;;;;;5031397;28;20391;-73
2021/01/03 04:38:42;;;;;;;67.93;35.73;;;4.90;60.60;;;;;;5030963;28;20803;-73
2021/01/03 04:41:12;;;;;;;65.40;34.67;;;4.90;61.00;;;;;;5031001;28;20383;-73
2021/01/03 04:43:37;;;;;;;61.33;33.00;;;4.90;59.10;;;;;;5031301;28;20434;-72
2021/01/03 04:46:08;;;;;;;69.90;34.37;;;5.00;57.80;;;;;;5031089;28;20430;-73
2021/01/03 04:48:36;;;;;;;66.15;33.17;;;5.00;57.50;;;;;;5030934;28;20390;-72
2021/01/03 04:51:24;;;;;;;61.35;31.92;;;4.90;58.50;;;;;;5030838;28;20391;-72
2021/01/03 04:53:58;;;;;;;61.00;31.67;;;4.90;58.30;;;;;;5031206;28;20395;-73
2021/01/03 04:56:41;;;;;;;62.17;31.73;;;5.00;56.70;;;;;;5031341;28;20387;-73
2021/01/03 04:59:16;;;;;;;56.75;31.02;;;4.90;57.80;;;;;;5030630;28;20434;-72
2021/01/03 05:01:47;;;;;;;62.30;32.00;;;4.90;56.80;;;;;;5031054;28;20891;-72
2021/01/03 05:04:15;;;;;;;59.35;30.08;;;4.80;58.90;;;;;;5030953;28;20853;-73
2021/01/03 05:06:51;;;;;;;54.03;29.45;;;5.00;56.10;;;;;;5030782;28;20379;-72
2021/01/03 05:09:17;;;;;;;58.70;31.60;;;5.10;54.50;;;;;;5030524;28;20824;-72
2021/01/03 05:11:54;;;;;;;56.97;29.77;;;5.00;55.30;;;;;;5030739;28;20387;-72
2021/01/03 05:14:29;;;;;;;57.90;29.80;;;5.20;53.00;;;;;;5030702;28;20462;-73
2021/01/03 05:16:55;;;;;;;51.60;28.20;;;5.00;53.00;;;;;;5030842;28;20414;-72
2021/01/03 05:19:21;;;;;;;57.13;30.58;;;5.00;54.00;;;;;;5030145;28;20922;-73
2021/01/03 05:21:53;;;;;;;51.10;28.50;;;4.90;54.90;;;;;;5030464;28;20414;-72
2021/01/03 05:24:21;;;;;;;53.33;28.65;;;4.90;54.90;;;;;;5030421;28;20399;-72
2021/01/03 05:26:47;;;;;;;50.72;27.63;;;5.10;52.40;;;;;;5030952;28;20383;-72
2021/01/03 05:29:28;;;;;;;48.30;27.07;;;5.20;50.60;;;;;;5030255;28;20437;-72
2021/01/03 05:32:01;;;;;;;45.92;25.67;;;5.00;51.80;;;;;;5030856;28;20402;-73
2021/01/03 05:34:39;;;;;;;49.88;26.67;;;5.00;51.70;;;;;;5030688;28;20421;-73
2021/01/03 05:37:09;;;;;;;48.58;26.40;;;5.00;51.50;;;;;;5012993;28;20391;-71
2021/01/03 05:39:37;;;;;;;46.38;26.55;;;5.20;51.50;;;;;;5030622;28;20445;-73
2021/01/03 05:42:19;;;;;;;52.40;27.02;;;5.20;50.50;;;;;;5030857;28;20480;-71
2021/01/03 05:45:00;;;;;;;46.38;27.10;;;5.00;52.50;;;;;;5031770;28;20775;-72
2021/01/03 05:47:36;;;;;;;46.60;25.20;;;5.00;52.50;;;;;;5032069;28;20379;-73
2021/01/03 05:50:25;;;;;;;42.33;24.20;;;5.20;49.90;;;;;;5031438;28;20401;-73
2021/01/03 05:53:08;;;;;;;44.53;24.05;;;5.30;48.70;;;;;;5031579;28;20448;-72
2021/01/03 05:55:36;;;;;;;46.50;25.70;;;5.20;49.50;;;;;;5031280;28;20449;-73
2021/01/03 05:58:36;;;;;;;49.55;25.42;;;5.30;48.70;;;;;;5035142;28;20436;-73
2021/01/03 06:01:20;;;;;;;43.50;24.73;;;5.30;47.90;;;;;;5035039;28;20406;-73
2021/01/03 06:04:19;;;;;;;44.33;24.55;;;5.30;48.20;;;;;;5017336;28;20402;-72
2021/01/03 06:06:50;;;;;;;46.40;24.20;;;5.30;47.90;;;;;;5026966;28;20448;-73
2021/01/03 06:09:19;;;;;;;47.08;24.63;;;5.20;49.80;;;;;;5034928;28;20411;-73
2021/01/03 06:12:02;;;;;;;46.25;24.73;;;5.30;51.30;;;;;;5034968;28;20386;-72
2021/01/03 06:14:28;;;;;;;43.87;24.00;;;5.30;50.10;;;;;;5034791;28;20390;-74
2021/01/03 06:17:15;;;;;;;45.30;24.42;;;5.30;51.10;;;;;;5035259;28;20391;-73
2021/01/03 06:19:52;;;;;;;43.27;24.93;;;5.40;48.40;;;;;;5035074;28;20387;-74
2021/01/03 06:22:43;;;;;;;45.03;25.15;;;5.40;49.00;;;;;;5035065;28;20379;-72
2021/01/03 06:25:14;;;;;;;47.00;24.92;;;5.40;48.70;;;;;;5035232;28;20414;-73
2021/01/03 06:27:40;;;;;;;44.38;24.05;;;5.40;48.50;;;;;;5035391;28;20464;-72
2021/01/03 06:30:09;;;;;;;46.47;25.40;;;5.40;47.40;;;;;;5035018;28;20422;-72
2021/01/03 06:33:14;;;;;;;47.38;24.60;;;5.30;48.70;;;;;;5035120;28;20367;-74
2021/01/03 06:35:56;;;;;;;45.08;25.40;;;5.20;48.70;;;;;;5034999;28;20379;-72
2021/01/03 06:38:34;;;;;;;50.92;25.25;;;5.20;49.30;;;;;;5035220;28;20368;-73
2021/01/03 06:41:14;;;;;;;48.97;25.63;;;5.20;48.10;;;;;;5034911;28;20952;-71
2021/01/03 06:44:17;;;;;;;45.75;25.67;;;5.10;48.80;;;;;;5034531;28;20407;-71
2021/01/03 06:47:12;;;;;;;46.40;24.70;;;5.10;49.40;;;;;;5034254;28;20378;-71
2021/01/03 06:50:05;;;;;;;47.00;23.58;;;5.10;48.50;;;;;;5034373;28;20382;-71
2021/01/03 06:52:40;;;;;;;41.22;23.65;;;5.10;49.10;;;;;;5034300;28;20429;-74
2021/01/03 06:55:15;;;;;;;45.50;24.02;;;5.10;50.00;;;;;;5033928;28;20803;-72
2021/01/03 06:58:19;;;;;;;44.05;24.35;;;5.10;48.80;;;;;;5034144;28;20421;-72
2021/01/03 07:00:52;;;;;;;45.55;23.17;;;5.10;48.10;;;;;;5015474;28;20399;-72
2021/01/03 07:03:17;;;;;;;39.90;21.67;;;5.10;48.10;;;;;;5033901;28;20796;-73
2021/01/03 07:06:00;;;;;;;37.30;22.37;;;5.10;48.30;;;;;;5016677;28;20398;-73
2021/01/03 07:08:30;;;;;;;43.15;22.50;;;5.10;47.70;;;;;;5034291;28;20383;-73
2021/01/03 07:10:56;;;;;;;38.83;21.70;;;5.10;47.00;;;;;;5033666;28;20379;-72
2021/01/03 07:13:25;;;;;;;37.65;21.90;;;5.10;47.50;;;;;;5033921;28;20387;-73
2021/01/03 07:15:51;;;;;;;38.78;21.75;;;5.10;48.10;;;;;;5033722;28;20399;-72
2021/01/03 07:18:25;;;;;;;34.28;19.83;;;5.10;48.90;;;;;;5033642;28;20390;-72
2021/01/03 07:21:06;;;;;;;35.83;19.23;;;5.10;47.40;;;;;;5033237;28;20449;-71
2021/01/03 07:23:36;;;;;;;35.70;19.77;;;5.20;44.60;;;;;;5033920;28;20447;-74
2021/01/03 07:26:13;;;;;;;34.03;19.53;;;5.20;45.40;;;;;;5033085;28;20547;-73
2021/01/03 07:28:39;;;;;;;30.08;17.55;;;5.20;45.40;;;;;;5032891;28;20398;-72
2021/01/03 07:31:12;;;;;;;31.02;17.80;;;5.20;44.30;;;;;;5032775;28;20394;-74
2021/01/03 07:33:49;;;;;;;29.27;17.65;;;5.10;46.10;;;;;;5032288;28;20375;-73
2021/01/03 07:36:18;;;;;;;30.58;17.52;;;5.20;44.30;;;;;;5032267;28;20853;-73
2021/01/03 07:39:08;;;;;;;30.60;17.30;;;5.30;43.20;;;;;;5032038;28;20391;-73
2021/01/03 07:41:34;;;;;;;31.67;16.63;;;5.10;44.70;;;;;;5033737;28;20840;-73
2021/01/03 07:44:20;;;;;;;27.77;16.15;;;5.30;43.10;;;;;;5032175;28;20411;-73
2021/01/03 07:46:49;;;;;;;27.38;15.77;;;5.30;41.90;;;;;;5014764;28;20800;-73
2021/01/03 07:49:34;;;;;;;28.13;15.07;;;5.30;42.20;;;;;;5029207;28;20399;-73
2021/01/03 07:52:10;;;;;;;24.13;14.60;;;5.30;41.20;;;;;;5031603;28;20881;-73
2021/01/03 07:54:35;;;;;;;26.27;14.68;;;5.40;40.20;;;;;;5031699;28;20387;-73
2021/01/03 07:57:08;;;;;;;24.33;14.40;;;5.10;43.00;;;;;;5031931;28;20502;-71
2021/01/03 07:59:35;;;;;;;23.48;13.98;;;5.30;41.00;;;;;;5031681;28;20468;-73
2021/01/03 08:02:01;;;;;;;25.90;13.52;;;5.30;41.20;;;;;;5031907;28;20864;-73
2021/01/03 08:04:30;;;;;;;23.27;14.25;;;5.30;41.70;;;;;;5032037;28;20419;-72
2021/01/03 08:07:11;;;;;;;23.60;13.80;;;5.10;43.00;;;;;;5013668;28;20391;-73
2021/01/03 08:09:37;;;;;;;25.75;13.93;;;5.20;41.70;;;;;;5031184;28;20391;-72
2021/01/03 08:12:18;;;;;;;23.65;14.00;;;5.20;41.60;;;;;;5031517;28;20422;-72
2021/01/03 08:14:45;;;;;;;23.42;14.02;;;5.40;40.40;;;;;;5031517;28;20398;-72
2021/01/03 08:17:25;;;;;;;22.40;13.50;;;5.20;40.60;;;;;;5031169;28;20460;-72
2021/01/03 08:19:51;;;;;;;20.33;13.05;;;5.20;41.90;;;;;;5030241;28;20521;-73
2021/01/03 08:22:25;;;;;;;19.60;12.02;;;5.40;39.90;;;;;;5031468;28;20395;-71
2021/01/03 08:24:54;;;;;;;22.40;13.25;;;5.50;38.80;;;;;;5013702;28;20410;-73
2021/01/03 08:27:22;;;;;;;20.90;12.93;;;5.40;38.30;;;;;;5031325;28;20564;-72
2021/01/03 08:29:57;;;;;;;18.45;11.98;;;5.40;39.90;;;;;;5030775;28;20387;-73
2021/01/03 08:32:27;;;;;;;20.70;12.88;;;5.50;39.00;;;;;;5031449;28;20848;-75
2021/01/03 08:35:02;;;;;;;21.52;12.35;;;5.40;38.80;;;;;;5032998;28;20876;-72
2021/01/03 08:37:38;;;;;;;20.23;12.05;;;5.40;38.50;;;;;;5032800;28;20744;-72
2021/01/03 08:40:11;;;;;;;24.75;12.80;;;5.50;38.50;;;;;;5032058;28;20426;-74
2021/01/03 08:42:42;;;;;;;19.60;12.55;;;5.50;38.20;;;;;;5032675;28;20405;-72
2021/01/03 08:45:14;;;;;;;21.88;12.80;;;5.50;37.30;;;;;;5032120;28;20493;-73
2021/01/03 08:47:41;;;;;;;20.40;12.50;;;5.50;37.80;;;;;;5031653;28;20464;-74
2021/01/03 08:50:17;;;;;;;18.05;11.35;;;5.40;38.80;;;;;;5030136;28;20395;-73
2021/01/03 08:52:43;;;;;;;20.10;12.48;;;5.40;38.90;;;;;;5031419;28;20395;-71
2021/01/03 08:55:16;;;;;;;20.27;12.27;;;5.40;38.10;;;;;;5031469;28;20396;-73
2021/01/03 08:57:43;;;;;;;17.13;11.32;;;5.50;37.60;;;;;;5010411;28;20432;-73
2021/01/03 09:00:14;;;;;;;18.42;11.80;;;5.50;37.70;;;;;;5011754;28;20878;-73
2021/01/03 09:02:44;;;;;;;17.65;11.02;;;5.50;38.10;;;;;;5012240;28;20392;-72
2021/01/03 09:05:14;;;;;;;17.27;11.00;;;5.40;37.50;;;;;;5011629;28;20412;-73
2021/01/03 09:07:40;;;;;;;17.25;11.95;;;5.40;38.00;;;;;;5012260;28;20487;-72
2021/01/03 09:10:07;;;;;;;17.15;11.68;;;5.40;38.10;;;;;;5011659;28;20412;-73
2021/01/03 09:12:44;;;;;;;18.10;11.90;;;5.40;38.10;;;;;;5012303;28;20539;-73
2021/01/03 09:15:21;;;;;;;15.98;10.75;;;5.40;37.80;;;;;;5012163;28;20415;-72
2021/01/03 09:18:08;;;;;;;16.25;11.55;;;5.50;36.90;;;;;;5012215;28;20389;-77
2021/01/03 09:20:43;;;;;;;18.27;11.70;;;5.60;36.80;;;;;;5011997;28;20385;-72
2021/01/03 09:23:14;;;;;;;15.85;11.02;;;5.60;36.20;;;;;;5012570;28;20388;-74
2021/01/03 09:25:41;;;;;;;16.33;11.10;;;5.60;36.60;;;;;;5014276;28;20430;-73
2021/01/03 09:28:11;;;;;;;15.45;10.77;;;5.50;37.80;;;;;;5032053;28;20385;-74
2021/01/03 09:30:39;;;;;;;13.68;10.18;;;5.50;37.30;;;;;;5031172;28;20379;-75
2021/01/03 09:33:22;;;;;;;15.77;10.68;;;5.60;36.20;;;;;;5035455;28;20498;-73
2021/01/03 09:36:04;;;;;;;15.35;11.48;;;5.70;34.90;;;;;;5035902;28;20387;-73
2021/01/03 09:39:14;;;;;;;16.67;11.48;;;5.60;36.20;;;;;;5035434;28;20436;-72
2021/01/03 09:41:50;;;;;;;14.98;10.45;;;5.70;36.10;;;;;;5016729;28;20824;-73
2021/01/03 09:44:27;;;;;;;14.80;10.77;;;5.70;35.10;;;;;;5033968;28;20461;-72
2021/01/03 09:47:03;;;;;;;16.77;11.15;;;5.70;34.80;;;;;;5034082;28;20744;-72
2021/01/03 09:49:38;;;;;;;13.52;9.90;;;5.70;35.40;;;;;;5034089;28;20410;-71
2021/01/03 09:52:18;;;;;;;13.32;9.25;;;5.70;34.60;;;;;;5033682;28;20441;-73
2021/01/03 09:55:02;;;;;;;10.77;8.20;;;5.60;34.30;;;;;;5034141;28;20456;-72
2021/01/03 09:57:48;;;;;;;12.40;9.15;;;5.40;34.80;;;;;;5034046;28;20752;-72
2021/01/03 10:00:36;;;;;;;13.30;8.80;;;5.40;35.70;;;;;;5015930;28;20858;-72
2021/01/03 10:03:34;;;;;;;16.70;9.45;;;5.50;35.80;;;;;;5032477;28;20399;-73
2021/01/03 10:06:23;;;;;;;11.60;7.90;;;5.50;36.30;;;;;;5033788;28;20429;-72
2021/01/03 10:09:05;;;;;;;11.60;8.02;;;5.60;34.50;;;;;;5015836;28;20453;-71
2021/01/03 10:11:34;;;;;;;11.68;8.73;;;5.50;35.10;;;;;;5033571;28;20383;-72
2021/01/03 10:14:04;;;;;;;10.95;8.05;;;5.50;35.70;;;;;;5033601;28;20379;-72
2021/01/03 10:16:31;;;;;;;10.60;7.60;;;5.60;34.90;;;;;;5033677;28;20494;-72
2021/01/03 10:18:57;;;;;;;9.77;7.60;;;5.50;34.70;;;;;;5033424;28;20517;-72
2021/01/03 10:21:38;;;;;;;9.13;6.80;;;5.50;35.90;;;;;;5033330;28;20854;-72
2021/01/03 10:24:11;;;;;;;11.38;7.40;;;5.60;33.80;;;;;;5033308;28;20464;-74
2021/01/03 10:26:37;;;;;;;8.48;6.40;;;5.60;34.10;;;;;;5033933;28;20466;-72
2021/01/03 10:29:04;;;;;;;11.30;7.20;;;5.50;34.70;;;;;;5032990;28;20521;-73
2021/01/03 10:31:47;;;;;;;9.57;6.70;;;5.50;35.20;;;;;;5032838;28;20387;-72
2021/01/03 10:34:16;;;;;;;10.65;7.63;;;5.50;35.20;;;;;;5033280;28;20486;-73
2021/01/03 10:36:41;;;;;;;11.45;7.35;;;5.40;35.20;;;;;;5033240;28;20391;-73
2021/01/03 10:39:09;;;;;;;10.60;7.20;;;5.50;35.40;;;;;;5032893;28;20380;-72
2021/01/03 10:41:37;;;;;;;13.20;7.35;;;5.50;35.20;;;;;;5032825;28;20398;-73
2021/01/03 10:44:04;;;;;;;10.10;7.47;;;5.50;34.90;;;;;;5033135;28;20923;-72
2021/01/03 10:46:30;;;;;;;10.80;7.23;;;5.50;35.30;;;;;;5033125;28;20469;-70
2021/01/03 10:48:55;;;;;;;11.20;7.13;;;5.50;34.80;;;;;;5032791;28;20853;-72
2021/01/03 10:51:33;;;;;;;10.45;8.20;;;5.60;35.20;;;;;;5031340;23;20437;-71
2021/01/03 10:53:59;;;;;;;10.20;7.60;;;5.60;35.50;;;;;;5013270;28;20416;-73
2021/01/03 10:56:26;;;;;;;10.57;7.30;;;5.60;35.90;;;;;;5013273;28;20388;-72
2021/01/03 10:58:52;;;;;;;11.23;7.82;;;5.60;34.60;;;;;;5013231;28;20377;-73
2021/01/03 11:01:18;;;;;;;10.52;7.40;;;5.60;35.40;;;;;;5012661;28;20387;-72
2021/01/03 11:03:43;;;;;;;10.80;7.30;;;5.60;35.20;;;;;;5011612;28;20495;-72
2021/01/03 11:06:12;;;;;;;13.77;8.17;;;5.70;35.30;;;;;;5013255;28;20392;-72
2021/01/03 11:08:38;;;;;;;9.80;7.25;;;5.80;34.10;;;;;;5014162;28;20888;-73
2021/01/03 11:11:06;;;;;;;10.13;7.50;;;5.70;34.20;;;;;;5014215;28;20422;-74
2021/01/03 11:13:33;;;;;;;12.15;7.50;;;5.80;34.80;;;;;;5014616;28;20395;-73
2021/01/03 11:15:59;;;;;;;10.90;7.57;;;5.70;35.50;;;;;;5013823;28;20909;-72
2021/01/03 11:18:24;;;;;;;10.60;7.10;;;5.70;35.50;;;;;;5012453;28;20388;-73
2021/01/03 11:20:51;;;;;;;9.70;7.15;;;5.70;35.10;;;;;;5013875;28;20882;-73
2021/01/03 11:23:17;;;;;;;9.07;6.70;;;5.80;34.30;;;;;;5013941;28;20443;-74
2021/01/03 11:25:45;;;;;;;9.15;6.90;;;5.80;33.50;;;;;;5014005;28;20389;-71
2021/01/03 11:28:12;;;;;;;11.85;7.40;;;5.80;34.00;;;;;;5012624;28;20389;-74
2021/01/03 11:30:37;;;;;;;12.35;6.80;;;5.80;34.40;;;;;;5013603;28;20456;-75
2021/01/03 11:33:03;;;;;;;10.23;6.93;;;5.90;35.20;;;;;;5013405;28;20420;-72
2021/01/03 11:35:28;;;;;;;9.87;6.50;;;5.90;34.00;;;;;;5013233;28;20401;-72
2021/01/03 11:37:55;;;;;;;8.10;6.50;;;5.90;33.60;;;;;;5014161;28;20389;-73
2021/01/03 11:40:21;;;;;;;9.82;6.40;;;5.70;34.00;;;;;;5014009;28;20882;-72
2021/01/03 11:42:46;;;;;;;8.20;6.10;;;5.60;34.40;;;;;;5014172;28;20397;-72
2021/01/03 11:45:16;;;;;;;10.50;6.60;;;5.70;34.80;;;;;;5013133;28;20408;-73
2021/01/03 11:47:42;;;;;;;9.35;6.90;;;5.70;36.40;;;;;;5012164;28;20421;-74
2021/01/03 11:50:11;;;;;;;9.23;6.53;;;5.80;34.80;;;;;;5012040;28;20451;-72
2021/01/03 11:52:37;;;;;;;8.18;6.30;;;5.90;34.80;;;;;;5012051;28;20417;-71
2021/01/03 11:55:04;;;;;;;9.30;6.07;;;6.00;33.10;;;;;;5011140;28;20393;-72
2021/01/03 11:57:30;;;;;;;11.38;6.50;;;5.90;33.80;;;;;;5011690;28;20479;-73
2021/01/03 11:59:56;;;;;;;8.23;5.97;;;5.90;35.30;;;;;;5011483;28;20480;-73
2021/01/03 12:02:21;;;;;;;7.93;6.43;;;5.90;34.10;;;;;;5011762;28;20833;-71
2021/01/03 12:04:47;;;;;;;9.60;6.63;;;5.90;33.90;;;;;;5011968;28;20431;-72
2021/01/03 12:07:16;;;;;;;9.20;6.50;;;5.80;34.20;;;;;;5011812;28;20393;-72
2021/01/03 12:09:42;;;;;;;10.07;5.70;;;5.70;34.70;;;;;;5011696;28;20468;-72
2021/01/03 12:12:20;;;;;;;10.13;7.25;;;5.60;33.80;;;;;;5011761;28;20893;-72
2021/01/03 12:14:45;;;;;;;8.25;5.47;;;5.60;35.10;;;;;;5011607;28;20403;-72
2021/01/03 12:17:17;;;;;;;8.73;5.82;;;5.50;35.30;;;;;;5011574;28;20475;-73
2021/01/03 12:19:44;;;;;;;9.02;6.57;;;5.40;35.30;;;;;;5011338;28;20385;-71
2021/01/03 12:22:10;;;;;;;7.38;5.90;;;5.30;36.20;;;;;;5010463;28;20492;-73
2021/01/03 12:24:36;;;;;;;7.00;6.07;;;5.30;36.30;;;;;;5012304;28;21087;-73
2021/01/03 12:27:02;;;;;;;7.35;5.80;;;5.40;36.10;;;;;;5015811;28;20389;-73
2021/01/03 12:29:29;;;;;;;6.90;5.30;;;5.30;36.50;;;;;;5015196;28;20400;-75
2021/01/03 12:31:57;;;;;;;10.05;6.10;;;5.20;36.60;;;;;;5015102;28;20406;-75
2021/01/03 12:34:24;;;;;;;10.05;7.05;;;5.20;37.10;;;;;;5013983;28;20392;-73
2021/01/03 12:36:50;;;;;;;10.73;6.50;;;5.20;37.10;;;;;;5011479;28;20385;-73
2021/01/03 12:39:18;;;;;;;8.98;6.57;;;5.20;37.10;;;;;;5011476;28;20475;-73
2021/01/03 12:41:44;;;;;;;7.90;6.45;;;5.30;36.80;;;;;;5010744;28;20396;-72
2021/01/03 12:44:10;;;;;;;8.07;6.10;;;5.30;36.70;;;;;;5011292;28;20408;-74
2021/01/03 12:46:39;;;;;;;11.15;7.00;;;5.20;37.00;;;;;;5011491;28;20900;-72
2021/01/03 12:49:06;;;;;;;9.95;6.80;;;5.20;36.80;;;;;;5010652;28;20393;-73
2021/01/03 12:51:32;;;;;;;11.10;7.60;;;5.20;37.50;;;;;;5011172;28;20820;-73
2021/01/03 12:53:58;;;;;;;10.18;6.65;;;5.20;37.90;;;;;;5011150;28;20396;-72
2021/01/03 12:56:24;;;;;;;9.60;6.40;;;5.30;37.40;;;;;;5009630;28;20401;-73
2021/01/03 12:58:53;;;;;;;11.05;6.80;;;5.30;37.00;;;;;;5012375;28;20403;-73
2021/01/03 13:01:26;;;;;;;10.73;7.40;;;5.30;36.90;;;;;;5013042;28;20381;-73